• Join FlightAware (Why Join?)
  • Login
  • US Flag 
08:02PM EDT


 

Airport Tracker/Info


-or-


 

Live Flight TrackerFlight Track Log ✈ FIN3183 ✈ 29-Oct-2013 ✈ EFHK / HEL - LEMD / MAD

Flight Track Log - Related Links

Times and Time Zones

All times are in EDT time to prevent confusion due to time zone crossing. See the FIN3183 flight status page for this flight to view local times or setup timezone preferences in your user account.

Time Position Orientation Groundspeed Altitude Reporting Facility
EDT Latitude Longitude Course Direction KTS MPH feet Rate Location/Type
11:20AM 60.1155 24.3987 235° Southwest  Level Estimated
11:21AM 60.0477 24.2120 234° Southwest  Level Estimated
11:22AM 59.9797 24.0261 234° Southwest  Level Estimated
11:23AM 59.9114 23.8410 234° Southwest  Level Estimated
11:24AM 59.8429 23.6566 234° Southwest  Level Estimated
11:25AM 59.7741 23.4730 233° Southwest  Level Estimated
11:26AM 59.7050 23.2901 233° Southwest  Level Estimated
11:27AM 59.6357 23.1080 233° Southwest  Level Estimated
11:28AM 59.5661 22.9267 233° Southwest  Level Estimated
11:29AM 59.4963 22.7460 233° Southwest  Level Estimated
11:30AM 59.4262 22.5662 233° Southwest  Level Estimated
11:31AM 59.3559 22.3871 232° Southwest  Level Estimated
11:32AM 59.2853 22.2087 232° Southwest  Level Estimated
11:33AM 59.2145 22.0311 232° Southwest  Level Estimated
11:34AM 59.1435 21.8542 232° Southwest  Level Estimated
11:35AM 59.0722 21.6780 232° Southwest  Level Estimated
11:36AM 59.0007 21.5026 232° Southwest  Level Estimated
11:37AM 58.9290 21.3279 232° Southwest  Level Estimated
11:38AM 58.8570 21.1539 231° Southwest  Level Estimated
11:39AM 58.7847 20.9807 231° Southwest  Level Estimated
11:40AM 58.7123 20.8081 231° Southwest  Level Estimated
11:41AM 58.6396 20.6363 231° Southwest  Level Estimated
11:42AM 58.5667 20.4652 231° Southwest  Level Estimated
11:43AM 58.4936 20.2948 231° Southwest  Level Estimated
11:44AM 58.4202 20.1251 230° Southwest  Level Estimated
11:45AM 58.3466 19.9562 230° Southwest  Level Estimated
11:46AM 58.2728 19.7879 230° Southwest  Level Estimated
11:47AM 58.1988 19.6203 230° Southwest  Level Estimated
11:48AM 58.1245 19.4535 230° Southwest  Level Estimated
11:49AM 58.0501 19.2873 230° Southwest  Level Estimated
11:50AM 57.9754 19.1218 230° Southwest  Level Estimated
11:51AM 57.9005 18.9570 230° Southwest  Level Estimated
11:52AM 57.8254 18.7929 229° Southwest  Level Estimated
11:53AM 57.7501 18.6295 229° Southwest  Level Estimated
11:54AM 57.6745 18.4667 229° Southwest  Level Estimated
11:55AM 57.5988 18.3047 229° Southwest  Level Estimated
11:56AM 57.5229 18.1433 229° Southwest  Level Estimated
11:57AM 57.4467 17.9826 229° Southwest  Level Estimated
11:58AM 57.3704 17.8225 229° Southwest  Level Estimated
11:59AM 57.2938 17.6631 228° Southwest  Level Estimated
12:00PM 57.2171 17.5044 228° Southwest  Level Estimated
12:01PM 57.1401 17.3463 228° Southwest  Level Estimated
12:02PM 57.0630 17.1889 228° Southwest  Level Estimated
12:03PM 56.9856 17.0322 228° Southwest  Level Estimated
12:04PM 56.9081 16.8761 228° Southwest  Level Estimated
12:05PM 56.8303 16.7206 228° Southwest  Level Estimated
12:06PM 56.7524 16.5658 227° Southwest  Level Estimated
12:07PM 56.6743 16.4116 227° Southwest  Level Estimated
12:08PM 56.5960 16.2581 227° Southwest  Level Estimated
12:09PM 56.5175 16.1052 227° Southwest  Level Estimated
12:10PM 56.4388 15.9530 227° Southwest  Level Estimated
12:11PM 56.3599 15.8013 227° Southwest  Level Estimated
12:12PM 56.2809 15.6503 227° Southwest  Level Estimated
12:13PM 56.2016 15.5000 227° Southwest  Level Estimated
12:14PM 56.1222 15.3502 226° Southwest  Level Estimated
12:15PM 56.0426 15.2011 226° Southwest  Level Estimated
12:16PM 55.9628 15.0525 226° Southwest  Level Estimated
12:17PM 55.8829 14.9046 226° Southwest  Level Estimated
12:18PM 55.8028 14.7573 226° Southwest  Level Estimated
12:19PM 55.7225 14.6106 226° Southwest  Level Estimated
12:20PM 55.6420 14.4645 226° Southwest  Level Estimated
12:21PM 55.5613 14.3190 226° Southwest  Level Estimated
12:22PM 55.4805 14.1741 225° Southwest  Level Estimated
12:23PM 55.3995 14.0298 225° Southwest  Level Estimated
12:24PM 55.3183 13.8861 225° Southwest  Level Estimated
12:25PM 55.2370 13.7429 225° Southwest  Level Estimated
12:26PM 55.1555 13.6004 225° Southwest  Level Estimated
12:27PM 55.0738 13.4584 225° Southwest  Level Estimated
12:28PM 54.9920 13.3171 225° Southwest  Level Estimated
12:29PM 54.9100 13.1763 225° Southwest  Level Estimated
12:30PM 54.8279 13.0360 225° Southwest  Level Estimated
12:31PM 54.7456 12.8964 224° Southwest  Level Estimated
12:32PM 54.6631 12.7573 224° Southwest  Level Estimated
12:33PM 54.5804 12.6187 224° Southwest  Level Estimated
12:34PM 54.4977 12.4808 224° Southwest  Level Estimated
12:35PM 54.4147 12.3434 224° Southwest  Level Estimated
12:36PM 54.3316 12.2065 224° Southwest  Level Estimated
12:37PM 54.2483 12.0702 224° Southwest  Level Estimated
12:38PM 54.1649 11.9344 224° Southwest  Level Estimated
12:39PM 54.0814 11.7992 224° Southwest  Level Estimated
12:40PM 53.9977 11.6645 223° Southwest  Level Estimated
12:41PM 53.9138 11.5304 223° Southwest  Level Estimated
12:42PM 53.8298 11.3968 223° Southwest  Level Estimated
12:43PM 53.7456 11.2638 223° Southwest  Level Estimated
12:44PM 53.6613 11.1313 223° Southwest  Level Estimated
12:45PM 53.5769 10.9993 223° Southwest  Level Estimated
12:46PM 53.4923 10.8678 223° Southwest  Level Estimated
12:47PM 53.4075 10.7369 223° Southwest  Level Estimated
12:48PM 53.3227 10.6065 223° Southwest  Level Estimated
12:49PM 53.2376 10.4766 222° Southwest  Level Estimated
12:50PM 53.1525 10.3472 222° Southwest  Level Estimated
12:51PM 53.0672 10.2183 222° Southwest  Level Estimated
12:52PM 52.9817 10.0899 222° Southwest  Level Estimated
12:53PM 52.8961 9.9621 222° Southwest  Level Estimated
12:54PM 52.8104 9.8348 222° Southwest  Level Estimated
12:55PM 52.7246 9.7079 222° Southwest  Level Estimated
12:56PM 52.6386 9.5815 222° Southwest  Level Estimated
12:57PM 52.5524 9.4557 222° Southwest  Level Estimated
12:58PM 52.4662 9.3303 222° Southwest  Level Estimated
12:59PM 52.3798 9.2055 221° Southwest  Level Estimated
01:00PM 52.2933 9.0811 221° Southwest  Level Estimated
01:01PM 52.2066 8.9572 221° Southwest  Level Estimated
01:02PM 52.1199 8.8338 221° Southwest  Level Estimated
01:03PM 52.0329 8.7108 221° Southwest  Level Estimated
01:04PM 51.9459 8.5884 221° Southwest  Level Estimated
01:05PM 51.8587 8.4664 221° Southwest  Level Estimated
01:06PM 51.7715 8.3449 221° Southwest  Level Estimated
01:07PM 51.6841 8.2239 221° Southwest  Level Estimated
01:08PM 51.5965 8.1033 221° Southwest  Level Estimated
01:09PM 51.5089 7.9832 220° Southwest  Level Estimated
01:10PM 51.4211 7.8635 220° Southwest  Level Estimated
01:11PM 51.3332 7.7443 220° Southwest  Level Estimated
01:12PM 51.2452 7.6256 220° Southwest  Level Estimated
01:13PM 51.1570 7.5073 220° Southwest  Level Estimated
01:14PM 51.0687 7.3895 220° Southwest  Level Estimated
01:15PM 50.9804 7.2721 220° Southwest  Level Estimated
01:16PM 50.8919 7.1552 220° Southwest  Level Estimated
01:17PM 50.8033 7.0387 220° Southwest  Level Estimated
01:18PM 50.7145 6.9226 220° Southwest  Level Estimated
01:19PM 50.6257 6.8070 220° Southwest  Level Estimated
01:20PM 50.5367 6.6919 219° Southwest  Level Estimated
01:21PM 50.4477 6.5771 219° Southwest  Level Estimated
01:22PM 50.3585 6.4628 219° Southwest  Level Estimated
01:23PM 50.2692 6.3489 219° Southwest  Level Estimated
01:24PM 50.1798 6.2355 219° Southwest  Level Estimated
01:25PM 50.0903 6.1225 219° Southwest  Level Estimated
01:26PM 50.0006 6.0099 219° Southwest  Level Estimated
01:27PM 49.9109 5.8977 219° Southwest  Level Estimated
01:28PM 49.8211 5.7859 219° Southwest  Level Estimated
01:29PM 49.7311 5.6746 219° Southwest  Level Estimated
01:30PM 49.6411 5.5636 219° Southwest  Level Estimated
01:31PM 49.5509 5.4531 219° Southwest  Level Estimated
01:32PM 49.4607 5.3430 218° Southwest  Level Estimated
01:33PM 49.3703 5.2333 218° Southwest  Level Estimated
01:34PM 49.2798 5.1239 218° Southwest  Level Estimated
01:35PM 49.1884 5.0141 218° Southwest  Level Estimated
01:36PM 49.0970 4.9046 218° Southwest  Level Estimated
01:37PM 49.0054 4.7955 218° Southwest  Level Estimated
01:38PM 48.9137 4.6869 218° Southwest  Level Estimated
01:39PM 48.8219 4.5786 218° Southwest  Level Estimated
01:40PM 48.7301 4.4708 218° Southwest  Level Estimated
01:41PM 48.6381 4.3633 218° Southwest  Level Estimated
01:42PM 48.5460 4.2562 218° Southwest  Level Estimated
01:43PM 48.4538 4.1495 218° Southwest  Level Estimated
01:44PM 48.3615 4.0432 217° Southwest  Level Estimated
01:45PM 48.2692 3.9373 217° Southwest  Level Estimated
01:46PM 48.1767 3.8318 217° Southwest  Level Estimated
01:47PM 48.0841 3.7266 217° Southwest  Level Estimated
01:48PM 47.9915 3.6218 217° Southwest  Level Estimated
01:49PM 47.8987 3.5174 217° Southwest  Level Estimated
01:50PM 47.8058 3.4134 217° Southwest  Level Estimated
01:51PM 47.7129 3.3097 217° Southwest  Level Estimated
01:52PM 47.6199 3.2064 217° Southwest  Level Estimated
01:53PM 47.5267 3.1035 217° Southwest  Level Estimated
01:54PM 47.4335 3.0010 217° Southwest  Level Estimated
01:55PM 47.3402 2.8988 217° Southwest  Level Estimated
01:56PM 47.2468 2.7970 217° Southwest  Level Estimated
01:57PM 47.1533 2.6955 216° Southwest  Level Estimated
01:58PM 47.0597 2.5944 216° Southwest  Level Estimated
01:59PM 46.9660 2.4936 216° Southwest  Level Estimated
02:00PM 46.8722 2.3932 216° Southwest  Level Estimated
02:01PM 46.7784 2.2931 216° Southwest  Level Estimated
02:02PM 46.6844 2.1934 216° Southwest  Level Estimated
02:03PM 46.5904 2.0940 216° Southwest  Level Estimated
02:04PM 46.4963 1.9950 216° Southwest  Level Estimated
02:05PM 46.4021 1.8964 216° Southwest  Level Estimated
02:06PM 46.3078 1.7980 216° Southwest  Level Estimated
02:07PM 46.2135 1.7000 216° Southwest  Level Estimated
02:08PM 46.1190 1.6023 216° Southwest  Level Estimated
02:09PM 46.0245 1.5050 216° Southwest  Level Estimated
02:10PM 45.9299 1.4080 216° Southwest  Level Estimated
02:11PM 45.8352 1.3113 215° Southwest  Level Estimated
02:12PM 45.7404 1.2150 215° Southwest  Level Estimated
02:13PM 45.6456 1.1190 215° Southwest  Level Estimated
02:14PM 45.5506 1.0233 215° Southwest  Level Estimated
02:15PM 45.4556 0.9280 215° Southwest  Level Estimated
02:16PM 45.3605 0.8329 215° Southwest  Level Estimated
02:17PM 45.2653 0.7382 215° Southwest  Level Estimated
02:18PM 45.1701 0.6438 215° Southwest  Level Estimated
02:19PM 45.0748 0.5497 215° Southwest  Level Estimated
02:20PM 44.9794 0.4559 215° Southwest  Level Estimated
02:21PM 44.8839 0.3624 215° Southwest  Level Estimated
02:22PM 44.7883 0.2693 215° Southwest  Level Estimated
02:23PM 44.6927 0.1764 215° Southwest  Level Estimated
02:24PM 44.5970 0.0839 215° Southwest  Level Estimated
02:25PM 44.5012 -0.0083 214° Southwest  Level Estimated
02:26PM 44.4053 -0.1003 214° Southwest  Level Estimated
02:27PM 44.3094 -0.1919 214° Southwest  Level Estimated
02:28PM 44.2134 -0.2832 214° Southwest  Level Estimated
02:29PM 44.1173 -0.3743 214° Southwest  Level Estimated
02:30PM 44.0212 -0.4650 214° Southwest  Level Estimated
02:31PM 43.9249 -0.5555 214° Southwest  Level Estimated
02:32PM 43.8287 -0.6456 214° Southwest  Level Estimated
02:33PM 43.7323 -0.7355 214° Southwest  Level Estimated
02:34PM 43.6359 -0.8251 214° Southwest  Level Estimated
02:35PM 43.5394 -0.9143 214° Southwest  Level Estimated
02:36PM 43.4428 -1.0034 214° Southwest  Level Estimated
02:37PM 43.3462 -1.0921 214° Southwest  Level Estimated
02:38PM 43.2495 -1.1805 214° Southwest  Level Estimated
02:39PM 43.1527 -1.2687 214° Southwest  Level Estimated
02:40PM 43.0558 -1.3565 214° Southwest  Level Estimated
02:41PM 42.9589 -1.4441 213° Southwest  Level Estimated
02:42PM 42.8619 -1.5315 213° Southwest  Level Estimated
02:43PM 42.7649 -1.6185 213° Southwest  Level Estimated
02:44PM 42.6678 -1.7053 213° Southwest  Level Estimated
02:45PM 42.5706 -1.7918 213° Southwest  Level Estimated
02:46PM 42.4734 -1.8780 213° Southwest  Level Estimated
02:47PM 42.3761 -1.9640 213° Southwest  Level Estimated
02:48PM 42.2787 -2.0497 213° Southwest  Level Estimated
02:49PM 42.1813 -2.1352 213° Southwest  Level Estimated
02:50PM 42.0838 -2.2203 213° Southwest  Level Estimated
02:51PM 41.9862 -2.3052 213° Southwest  Level Estimated
02:52PM 41.8886 -2.3899 213° Southwest  Level Estimated
02:53PM 41.7909 -2.4743 213° Southwest  Level Estimated
02:54PM 41.6932 -2.5584 213° Southwest  Level Estimated
02:55PM 41.5954 -2.6423 213° Southwest  Level Estimated
02:56PM 41.4975 -2.7260 213° Southwest  Level Estimated
02:57PM 41.3996 -2.8093 213° Southwest  Level Estimated
02:58PM 41.3016 -2.8925 213° Southwest  Level Estimated
02:59PM 41.2035 -2.9753 212° Southwest  Level Estimated
03:00PM 41.1054 -3.0580 212° Southwest  Level Estimated
03:01PM 41.0073 -3.1404 212° Southwest  Level Estimated
03:02PM 40.9091 -3.2225 212° Southwest  Level Estimated
03:03PM 40.8108 -3.3044 212° Southwest  Level Estimated
03:04PM 40.7124 -3.3860 212° Southwest  Level Estimated
03:05PM 40.6141 -3.4674 212° Southwest  Level Estimated
03:06PM 40.5156 -3.5486 212° Southwest  Level Estimated
03:07PM 40.4936 -3.5668 212° Southwest  Level Estimated
03:08PM 40.4936 -3.5668 217° Southwest  Level Estimated
03:09PM 40.4936 -3.5668 217° Southwest  Level Estimated
03:10PM 40.4936 -3.5668 217° Southwest  Level Estimated
03:11PM 40.4936 -3.5668 217° Southwest  Level Estimated
03:12PM 40.4936 -3.5668 217° Southwest  Level Estimated
03:13PM 40.4936 -3.5668 217° Southwest  Level Estimated
03:14PM 40.4936 -3.5668 217° Southwest  Level Estimated
03:15PM 40.4936 -3.5668 217° Southwest  Level Estimated
03:16PM 40.4936 -3.5668 217° Southwest  Level Estimated
03:17PM 40.4936 -3.5668 217° Southwest  Level Estimated
03:18PM 40.4936 -3.5668 217° Southwest  Level Estimated
03:19PM 40.4936 -3.5668 217° Southwest  Level Estimated
03:20PM 40.4936 -3.5668 217° Southwest  Level Estimated
03:21PM 40.4936 -3.5668 217° Southwest  Level Estimated